Time;durP1;ratioP1;P1;durP2;ratioP2;P2;SDS_P1;SDS_P2;PMS_P1;PMS_P2;Temp;Humidity;BMP_temperature;BMP_pressure;BME280_temperature;BME280_humidity;BME280_pressure;Samples;Min_cycle;Max_cycle;Signal;HPM_P1;HPM_P2
2020/12/06 00:03:11;;;;;;;5.05;1.80;;;2.50;99.90;;;;;;10494346;28;20496;-49
2020/12/06 00:08:32;;;;;;;5.55;2.65;;;2.50;99.90;;;;;;10485705;28;20037;-48
2020/12/06 00:13:53;;;;;;;5.65;2.08;;;2.50;99.90;;;;;;10487458;28;20707;-49
2020/12/06 00:19:14;;;;;;;6.28;2.13;;;2.50;99.90;;;;;;10486735;28;20063;-48
2020/12/06 00:24:35;;;;;;;3.58;1.33;;;2.40;99.90;;;;;;10491129;28;20569;-48
2020/12/06 00:29:56;;;;;;;4.35;2.05;;;2.50;99.90;;;;;;10491411;28;20488;-49
2020/12/06 00:35:17;;;;;;;7.25;1.73;;;2.50;99.90;;;;;;10483477;28;20059;-49
2020/12/06 00:40:38;;;;;;;4.63;1.95;;;2.50;99.90;;;;;;10489347;28;20043;-49
2020/12/06 00:45:59;;;;;;;2.33;1.05;;;2.50;99.90;;;;;;10476250;28;20058;-49
2020/12/06 00:51:20;;;;;;;9.38;1.58;;;2.50;99.90;;;;;;10472044;28;20071;-49
2020/12/06 00:56:41;;;;;;;6.03;2.10;;;2.40;99.90;;;;;;10487175;28;20416;-49
2020/12/06 01:02:04;;;;;;;6.63;2.25;;;2.20;99.90;;;;;;10499282;28;20119;-49
2020/12/06 01:07:26;;;;;;;4.38;2.03;;;2.20;99.90;;;;;;10479010;28;20036;-49
2020/12/06 01:12:47;;;;;;;7.10;2.55;;;2.10;99.90;;;;;;10489544;28;20060;-49
2020/12/06 01:18:08;;;;;;;7.05;2.10;;;2.10;99.90;;;;;;10480449;28;20045;-49
2020/12/06 01:23:29;;;;;;;7.38;2.42;;;2.10;99.90;;;;;;10485410;28;20043;-48
2020/12/06 01:28:50;;;;;;;6.93;1.90;;;2.10;99.90;;;;;;10489357;28;20036;-49
2020/12/06 01:34:11;;;;;;;2.50;1.65;;;2.00;99.90;;;;;;10481982;28;20033;-49
2020/12/06 01:39:32;;;;;;;3.45;1.35;;;2.10;99.90;;;;;;10481995;28;20392;-49
2020/12/06 01:44:58;;;;;;;4.10;2.05;;;2.00;99.90;;;;;;10486495;28;20128;-49
2020/12/06 01:50:19;;;;;;;6.53;2.33;;;2.00;99.90;;;;;;10481403;28;20042;-48
2020/12/06 01:55:41;;;;;;;6.38;2.25;;;2.00;99.90;;;;;;10480792;28;20033;-49
2020/12/06 02:01:02;;;;;;;6.22;2.13;;;1.90;99.90;;;;;;10486969;28;20039;-49
2020/12/06 02:06:23;;;;;;;4.18;2.38;;;1.80;99.90;;;;;;10474759;28;20055;-49
2020/12/06 02:11:44;;;;;;;5.13;1.52;;;1.80;99.90;;;;;;10480048;28;20039;-49
2020/12/06 02:17:05;;;;;;;3.20;1.90;;;1.70;99.90;;;;;;10479572;28;20037;-49
2020/12/06 02:22:26;;;;;;;4.50;2.70;;;1.70;99.90;;;;;;10484585;28;20458;-49
2020/12/06 02:27:47;;;;;;;5.78;2.20;;;1.70;99.90;;;;;;10486928;28;20028;-49
2020/12/06 02:33:08;;;;;;;7.72;2.42;;;1.80;99.90;;;;;;10492496;28;20131;-49
2020/12/06 02:38:29;;;;;;;6.40;2.03;;;1.80;99.90;;;;;;10484899;28;20047;-48
2020/12/06 02:43:50;;;;;;;3.35;1.70;;;1.80;99.90;;;;;;10486187;28;20036;-49
2020/12/06 02:49:11;;;;;;;7.18;3.25;;;1.90;99.90;;;;;;10485014;28;20040;-49
2020/12/06 02:54:33;;;;;;;5.00;2.53;;;1.90;99.90;;;;;;10491316;28;20036;-49
2020/12/06 02:59:54;;;;;;;4.38;1.85;;;1.90;99.90;;;;;;10494334;28;20032;-49
2020/12/06 03:05:15;;;;;;;4.10;2.05;;;1.90;99.90;;;;;;10487338;28;20040;-49
2020/12/06 03:10:36;;;;;;;6.70;1.77;;;1.90;99.90;;;;;;10493511;28;20055;-49
2020/12/06 03:15:56;;;;;;;6.72;2.67;;;1.90;99.90;;;;;;10489962;28;20039;-49
2020/12/06 03:21:17;;;;;;;5.75;2.92;;;1.90;99.90;;;;;;10492801;28;20105;-49
2020/12/06 03:26:38;;;;;;;5.78;2.90;;;1.90;99.90;;;;;;10492501;28;20060;-49
2020/12/06 03:31:59;;;;;;;4.07;1.75;;;1.80;99.90;;;;;;10491116;28;20043;-49
2020/12/06 03:37:20;;;;;;;5.93;2.22;;;1.70;99.90;;;;;;10478293;28;20076;-49
2020/12/06 03:42:41;;;;;;;3.45;1.80;;;1.70;99.90;;;;;;10490935;28;20020;-49
2020/12/06 03:48:02;;;;;;;4.78;1.88;;;1.60;99.90;;;;;;10486794;28;20109;-49
2020/12/06 03:53:23;;;;;;;4.30;2.00;;;1.60;99.90;;;;;;10489900;28;20032;-49
2020/12/06 03:58:45;;;;;;;6.35;2.55;;;1.50;99.90;;;;;;10487181;28;20048;-49
2020/12/06 04:04:06;;;;;;;5.43;1.83;;;1.40;99.90;;;;;;10493111;28;20036;-48
2020/12/06 04:09:27;;;;;;;9.35;3.75;;;1.40;99.90;;;;;;10484310;28;20047;-49
2020/12/06 04:14:48;;;;;;;4.97;2.50;;;1.40;99.90;;;;;;10490428;28;20036;-49
2020/12/06 04:20:09;;;;;;;4.88;1.83;;;1.30;99.90;;;;;;10480057;28;20088;-51
2020/12/06 04:25:29;;;;;;;6.78;1.80;;;1.30;99.90;;;;;;10485057;28;20131;-51
2020/12/06 04:30:50;;;;;;;7.28;1.23;;;1.20;99.90;;;;;;10492731;28;20044;-51
2020/12/06 04:36:11;;;;;;;5.07;2.70;;;1.10;99.90;;;;;;10480473;28;20044;-51
2020/12/06 04:41:32;;;;;;;5.97;2.40;;;1.10;99.90;;;;;;10486052;28;20043;-51
2020/12/06 04:47:03;;;;;;;5.13;1.42;;;1.10;99.90;;;;;;10498070;28;20055;-50
2020/12/06 04:52:28;;;;;;;9.38;2.03;;;1.10;99.90;;;;;;10484413;28;20053;-50
2020/12/06 04:57:49;;;;;;;6.13;2.10;;;1.10;99.90;;;;;;10485262;28;20055;-51
2020/12/06 05:03:12;;;;;;;6.45;3.85;;;1.20;99.90;;;;;;10493226;28;20044;-51
2020/12/06 05:08:35;;;;;;;4.22;2.25;;;1.20;99.90;;;;;;10483819;28;20661;-50
2020/12/06 05:13:56;;;;;;;7.93;2.28;;;1.30;99.90;;;;;;10485357;28;20043;-51
2020/12/06 05:19:16;;;;;;;5.22;1.92;;;1.20;99.90;;;;;;10485918;28;20089;-51
2020/12/06 05:24:37;;;;;;;8.70;2.53;;;1.30;99.90;;;;;;10487570;28;20067;-51
2020/12/06 05:29:58;;;;;;;4.05;2.88;;;1.30;99.90;;;;;;10488155;28;20114;-51
2020/12/06 05:35:20;;;;;;;6.13;2.38;;;1.40;99.90;;;;;;10487487;28;20120;-51
2020/12/06 05:40:45;;;;;;;6.45;2.72;;;1.40;99.90;;;;;;10486001;28;20039;-51
2020/12/06 05:46:14;;;;;;;6.10;3.00;;;1.40;99.90;;;;;;10478984;28;20079;-51
2020/12/06 05:51:35;;;;;;;7.45;2.97;;;1.40;99.90;;;;;;10477622;28;20404;-51
2020/12/06 05:56:57;;;;;;;7.30;2.38;;;1.40;99.90;;;;;;10484489;28;20473;-51
2020/12/06 06:02:18;;;;;;;5.07;1.85;;;1.50;99.90;;;;;;10475919;28;20052;-51
2020/12/06 06:07:41;;;;;;;4.68;1.80;;;1.40;99.90;;;;;;10487397;28;20071;-51
2020/12/06 06:13:04;;;;;;;8.13;3.25;;;1.50;99.90;;;;;;10480105;28;20504;-51
2020/12/06 06:18:25;;;;;;;6.80;2.15;;;1.50;99.90;;;;;;10487950;28;20036;-50
2020/12/06 06:23:50;;;;;;;3.85;2.00;;;1.60;99.90;;;;;;10483438;28;20053;-51
2020/12/06 06:29:16;;;;;;;8.45;3.08;;;1.60;99.90;;;;;;10482920;28;20036;-49
2020/12/06 06:34:38;;;;;;;9.90;3.20;;;1.70;99.90;;;;;;10490905;28;20044;-49
2020/12/06 06:40:07;;;;;;;5.95;2.65;;;1.70;99.90;;;;;;10484501;28;20076;-49
2020/12/06 06:45:31;;;;;;;3.53;1.90;;;1.70;99.90;;;;;;10483523;28;20041;-48
2020/12/06 06:50:52;;;;;;;7.53;3.00;;;1.60;99.90;;;;;;10486439;28;20072;-49
2020/12/06 06:56:18;;;;;;;5.18;1.95;;;1.60;99.90;;;;;;10481967;28;20355;-51
2020/12/06 07:01:48;;;;;;;5.28;2.47;;;1.50;99.90;;;;;;10490033;28;20044;-49
2020/12/06 07:07:09;;;;;;;4.35;2.47;;;1.50;99.90;;;;;;10484507;28;20051;-49
2020/12/06 07:12:39;;;;;;;7.38;3.08;;;1.50;99.90;;;;;;10482264;28;20056;-49
2020/12/06 07:18:03;;;;;;;6.53;2.28;;;1.40;99.90;;;;;;10491832;28;20040;-50
2020/12/06 07:23:23;;;;;;;7.05;3.28;;;1.50;99.90;;;;;;10493281;28;20676;-51
2020/12/06 07:28:45;;;;;;;11.85;3.65;;;1.40;99.90;;;;;;10499803;28;20484;-50
2020/12/06 07:34:06;;;;;;;4.05;2.38;;;1.50;99.90;;;;;;10490559;28;20121;-51
2020/12/06 07:39:27;;;;;;;9.13;3.22;;;1.60;99.90;;;;;;10493172;28;20131;-49
2020/12/06 07:44:51;;;;;;;7.90;2.83;;;1.60;99.90;;;;;;10490030;28;20041;-49
2020/12/06 07:50:12;;;;;;;8.90;2.80;;;1.60;99.90;;;;;;10486577;28;20036;-49
2020/12/06 07:55:33;;;;;;;6.82;2.47;;;1.60;99.90;;;;;;10493521;28;20037;-49
2020/12/06 08:00:54;;;;;;;8.57;2.90;;;1.60;99.90;;;;;;10495212;28;20094;-49
2020/12/06 08:06:17;;;;;;;6.20;2.75;;;1.70;99.90;;;;;;10490389;28;20044;-48
2020/12/06 08:11:47;;;;;;;5.22;3.50;;;1.70;99.90;;;;;;10487550;28;20045;-49
2020/12/06 08:17:08;;;;;;;16.17;3.70;;;1.70;99.90;;;;;;10486683;28;20123;-49
2020/12/06 08:22:29;;;;;;;4.95;3.10;;;1.80;99.90;;;;;;10497670;28;20113;-49
2020/12/06 08:27:51;;;;;;;8.23;2.83;;;1.90;99.90;;;;;;10496466;28;20041;-49
2020/12/06 08:33:12;;;;;;;5.40;2.67;;;2.00;99.90;;;;;;10499364;28;20028;-49
2020/12/06 08:38:37;;;;;;;10.55;3.75;;;2.10;99.90;;;;;;10497123;28;20396;-49
2020/12/06 08:44:05;;;;;;;6.70;1.75;;;2.10;99.90;;;;;;10497073;28;20193;-49
2020/12/06 08:49:26;;;;;;;6.30;2.45;;;2.20;99.90;;;;;;10497011;28;20059;-49
2020/12/06 08:54:49;;;;;;;5.82;3.38;;;2.20;99.90;;;;;;10502877;28;20094;-49
2020/12/06 09:00:10;;;;;;;8.25;3.80;;;2.20;99.90;;;;;;10497038;28;20032;-49
2020/12/06 09:05:31;;;;;;;6.53;2.60;;;2.30;99.90;;;;;;10499010;28;20465;-49
2020/12/06 09:10:52;;;;;;;7.43;2.35;;;2.30;99.90;;;;;;10496750;28;20049;-49
2020/12/06 09:16:13;;;;;;;6.38;2.55;;;2.40;99.90;;;;;;10481511;28;20047;-48
2020/12/06 09:21:34;;;;;;;8.40;3.08;;;2.50;99.90;;;;;;10500097;28;20061;-48
2020/12/06 09:26:55;;;;;;;6.82;2.35;;;2.50;99.90;;;;;;10498758;28;20155;-51
2020/12/06 09:32:17;;;;;;;8.13;3.28;;;2.50;99.90;;;;;;10483242;28;20052;-48
2020/12/06 09:37:38;;;;;;;7.40;1.98;;;2.50;99.90;;;;;;10493537;28;20492;-48
2020/12/06 09:42:59;;;;;;;9.93;3.30;;;2.60;99.90;;;;;;10494589;28;20037;-48
2020/12/06 09:48:20;;;;;;;8.23;2.92;;;2.70;99.90;;;;;;10498113;28;20460;-48
2020/12/06 09:53:41;;;;;;;10.02;3.65;;;2.70;99.90;;;;;;10496483;28;20028;-51
2020/12/06 09:59:02;;;;;;;7.63;3.28;;;2.80;99.90;;;;;;10497649;28;20059;-48
2020/12/06 10:04:23;;;;;;;6.18;2.60;;;2.80;99.90;;;;;;10493703;28;20040;-49
2020/12/06 10:09:44;;;;;;;5.72;2.97;;;2.90;99.90;;;;;;10496247;28;20090;-49
2020/12/06 10:15:05;;;;;;;8.60;2.80;;;2.90;99.90;;;;;;10497612;28;20459;-49
2020/12/06 10:20:26;;;;;;;10.02;3.42;;;3.00;99.90;;;;;;10496979;28;20480;-49
2020/12/06 10:25:47;;;;;;;9.77;2.78;;;3.10;99.90;;;;;;10500635;28;20059;-49
2020/12/06 10:31:08;;;;;;;9.77;4.10;;;3.10;99.90;;;;;;10499487;28;20040;-49
2020/12/06 10:36:29;;;;;;;7.90;2.90;;;3.20;99.90;;;;;;10516773;28;20040;-49
2020/12/06 10:41:55;;;;;;;7.65;3.38;;;3.30;99.90;;;;;;10495760;28;20090;-49
2020/12/06 10:47:18;;;;;;;8.25;3.45;;;3.40;99.90;;;;;;10502460;28;20048;-51
2020/12/06 10:52:39;;;;;;;7.18;2.28;;;3.40;99.90;;;;;;10503385;28;20572;-49
2020/12/06 10:58:00;;;;;;;8.40;3.78;;;3.40;99.90;;;;;;10524676;28;20036;-49
2020/12/06 11:03:21;;;;;;;6.68;3.45;;;3.40;99.90;;;;;;10483102;28;20942;-49
2020/12/06 11:08:42;;;;;;;14.75;5.05;;;3.50;99.90;;;;;;10516435;28;20032;-49
2020/12/06 11:14:03;;;;;;;6.18;2.60;;;3.50;99.90;;;;;;10520899;28;20056;-49
2020/12/06 11:19:24;;;;;;;10.18;4.47;;;3.50;99.90;;;;;;10505704;28;20059;-49
2020/12/06 11:24:45;;;;;;;9.10;3.53;;;3.50;99.90;;;;;;10512284;28;20040;-49
2020/12/06 11:30:06;;;;;;;8.85;4.00;;;3.50;99.90;;;;;;10496230;28;20039;-49
2020/12/06 11:35:27;;;;;;;8.70;3.42;;;3.50;99.90;;;;;;10503322;28;20073;-49
2020/12/06 11:40:48;;;;;;;9.32;3.10;;;3.60;99.90;;;;;;10495144;28;20091;-49
2020/12/06 11:46:09;;;;;;;15.40;4.97;;;3.60;99.90;;;;;;10507000;28;20167;-49
2020/12/06 11:51:30;;;;;;;11.70;4.20;;;3.60;99.90;;;;;;10507263;28;20107;-49
2020/12/06 11:56:51;;;;;;;10.93;4.32;;;3.60;99.90;;;;;;10500668;28;20739;-49
2020/12/06 12:02:12;;;;;;;8.63;3.58;;;3.70;99.90;;;;;;10509384;28;20895;-49
2020/12/06 12:07:33;;;;;;;13.55;5.50;;;3.60;99.90;;;;;;10484630;28;20050;-49
2020/12/06 12:12:54;;;;;;;14.20;3.97;;;3.70;99.90;;;;;;10503250;28;20078;-49
2020/12/06 12:18:15;;;;;;;9.57;3.60;;;3.70;99.90;;;;;;10473010;28;20036;-51
2020/12/06 12:23:36;;;;;;;9.73;3.35;;;3.80;99.90;;;;;;10490229;28;20535;-51
2020/12/06 12:28:57;;;;;;;10.48;3.78;;;3.80;99.90;;;;;;10482697;28;20040;-51
2020/12/06 12:34:18;;;;;;;8.85;3.30;;;3.90;99.90;;;;;;10488746;28;20044;-49
2020/12/06 12:39:39;;;;;;;12.02;3.33;;;4.00;99.90;;;;;;10492991;28;20047;-49
2020/12/06 12:45:00;;;;;;;8.52;2.45;;;4.00;99.90;;;;;;10487699;28;20539;-51
2020/12/06 12:50:22;;;;;;;9.93;3.60;;;4.10;99.90;;;;;;10484247;28;20032;-51
2020/12/06 12:55:43;;;;;;;9.73;3.28;;;4.20;99.90;;;;;;10485332;28;20738;-51
2020/12/06 13:01:04;;;;;;;11.05;5.00;;;4.30;99.90;;;;;;10467183;28;20135;-51
2020/12/06 13:06:25;;;;;;;7.03;3.38;;;4.40;99.90;;;;;;10468237;28;20056;-51
2020/12/06 13:11:46;;;;;;;12.52;4.80;;;4.40;99.90;;;;;;10475224;28;20078;-51
2020/12/06 13:17:07;;;;;;;13.73;4.28;;;4.50;99.90;;;;;;10478071;28;20047;-51
2020/12/06 13:22:29;;;;;;;10.40;4.13;;;4.50;99.90;;;;;;10461175;28;20252;-51
2020/12/06 13:27:50;;;;;;;13.27;4.15;;;4.50;99.90;;;;;;10507235;28;20035;-51
2020/12/06 13:33:11;;;;;;;11.63;5.32;;;4.50;99.90;;;;;;10503610;28;20039;-51
2020/12/06 13:38:32;;;;;;;10.00;4.35;;;4.50;99.90;;;;;;10505503;28;20036;-51
2020/12/06 13:43:53;;;;;;;7.22;4.80;;;4.50;99.90;;;;;;10504814;28;20043;-51
2020/12/06 13:49:14;;;;;;;11.20;3.90;;;4.50;99.90;;;;;;10504311;28;20028;-51
2020/12/06 13:54:35;;;;;;;10.52;4.47;;;4.40;99.90;;;;;;10509673;28;20255;-51
2020/12/06 13:59:56;;;;;;;7.72;3.63;;;4.30;99.90;;;;;;10511338;28;20036;-51
2020/12/06 14:05:17;;;;;;;10.25;4.18;;;4.30;99.90;;;;;;10502186;28;20468;-51
2020/12/06 14:10:38;;;;;;;7.85;3.28;;;4.20;99.90;;;;;;10507616;28;20502;-49
2020/12/06 14:15:59;;;;;;;6.80;3.58;;;4.20;99.90;;;;;;10508867;28;20046;-49
2020/12/06 14:21:20;;;;;;;12.90;4.13;;;4.20;99.90;;;;;;10506392;28;20446;-51
2020/12/06 14:26:41;;;;;;;8.35;3.55;;;4.20;99.90;;;;;;10517849;28;20090;-49
2020/12/06 14:32:02;;;;;;;9.13;3.50;;;4.10;99.90;;;;;;10513386;28;20040;-51
2020/12/06 14:37:23;;;;;;;7.20;4.07;;;4.10;99.90;;;;;;10524413;28;20172;-51
2020/12/06 14:42:44;;;;;;;8.23;4.18;;;4.10;99.90;;;;;;10528601;28;20178;-51
2020/12/06 14:48:05;;;;;;;14.32;3.78;;;4.10;99.90;;;;;;10513105;28;20036;-51
2020/12/06 14:53:28;;;;;;;9.57;2.90;;;4.10;99.90;;;;;;10526074;28;20032;-51
2020/12/06 14:58:49;;;;;;;11.35;5.22;;;4.10;99.90;;;;;;10521124;28;20068;-51
2020/12/06 15:04:10;;;;;;;11.93;4.60;;;4.10;99.90;;;;;;10517581;28;20024;-51
2020/12/06 15:09:31;;;;;;;8.35;4.47;;;4.10;99.90;;;;;;10529364;28;20123;-51
2020/12/06 15:14:52;;;;;;;7.15;3.15;;;4.10;99.90;;;;;;10526730;28;20048;-51
2020/12/06 15:20:13;;;;;;;13.63;4.65;;;4.10;99.90;;;;;;10527069;28;20073;-51
2020/12/06 15:25:34;;;;;;;8.65;3.05;;;4.00;99.90;;;;;;10524497;28;20047;-51
2020/12/06 15:30:55;;;;;;;9.95;3.30;;;4.00;99.90;;;;;;10530083;28;20374;-51
2020/12/06 15:36:18;;;;;;;13.30;3.70;;;4.00;99.90;;;;;;10519136;28;20040;-51
2020/12/06 15:41:39;;;;;;;11.15;4.38;;;4.00;99.90;;;;;;10511769;28;20445;-51
2020/12/06 15:47:00;;;;;;;10.57;3.20;;;3.90;99.90;;;;;;10520721;28;20097;-51
2020/12/06 15:52:21;;;;;;;7.43;3.13;;;3.90;99.90;;;;;;10508369;28;20028;-51
2020/12/06 15:57:42;;;;;;;9.63;3.70;;;3.90;99.90;;;;;;10520439;28;20375;-51
2020/12/06 16:03:03;;;;;;;9.50;3.70;;;3.90;99.90;;;;;;10505654;28;20070;-51
2020/12/06 16:08:24;;;;;;;12.82;3.97;;;3.90;99.90;;;;;;10495975;28;20043;-51
2020/12/06 16:13:46;;;;;;;12.52;5.03;;;3.90;99.90;;;;;;10522885;28;20036;-51
2020/12/06 16:19:07;;;;;;;11.05;4.20;;;3.90;99.90;;;;;;10511545;28;20064;-51
2020/12/06 16:24:29;;;;;;;10.30;3.70;;;4.00;99.90;;;;;;10514771;28;20155;-51
2020/12/06 16:29:51;;;;;;;7.22;3.35;;;4.00;99.90;;;;;;10507132;28;20484;-51
2020/12/06 16:35:12;;;;;;;20.48;5.55;;;4.10;99.90;;;;;;10516104;28;20044;-51
2020/12/06 16:40:34;;;;;;;14.63;4.75;;;4.20;99.90;;;;;;10515665;28;20040;-51
2020/12/06 16:45:55;;;;;;;23.60;6.82;;;4.20;99.90;;;;;;10514949;28;20427;-51
2020/12/06 16:51:16;;;;;;;16.98;5.53;;;4.20;99.90;;;;;;10516770;28;20032;-51
2020/12/06 16:56:37;;;;;;;8.73;4.13;;;4.30;99.90;;;;;;10505739;28;20186;-51
2020/12/06 17:01:58;;;;;;;21.17;4.68;;;4.30;99.90;;;;;;10520243;28;20100;-51
2020/12/06 17:07:19;;;;;;;21.38;5.13;;;4.30;99.90;;;;;;10501493;28;20391;-51
2020/12/06 17:12:40;;;;;;;10.07;3.75;;;4.30;99.90;;;;;;10516181;28;20044;-51
2020/12/06 17:18:01;;;;;;;14.82;4.97;;;4.40;99.90;;;;;;10503098;28;20125;-51
2020/12/06 17:23:22;;;;;;;13.93;5.97;;;4.40;99.90;;;;;;10515801;28;20560;-51
2020/12/06 17:28:43;;;;;;;16.02;4.93;;;4.40;99.90;;;;;;10509614;28;20048;-51
2020/12/06 17:34:05;;;;;;;12.00;5.18;;;4.40;99.90;;;;;;10519717;28;20093;-51
2020/12/06 17:39:26;;;;;;;14.75;5.05;;;4.40;99.90;;;;;;10511539;28;20380;-51
2020/12/06 17:44:47;;;;;;;14.52;5.60;;;4.40;99.90;;;;;;10504442;28;20160;-51
2020/12/06 17:50:08;;;;;;;13.02;4.05;;;4.40;99.90;;;;;;10509854;28;20043;-51
2020/12/06 17:55:31;;;;;;;14.77;3.85;;;4.40;99.90;;;;;;10494107;28;20037;-51
2020/12/06 18:00:52;;;;;;;12.63;6.45;;;4.40;99.90;;;;;;10477230;28;20139;-51
2020/12/06 18:06:19;;;;;;;12.23;3.28;;;4.40;99.90;;;;;;10485163;28;20594;-51
2020/12/06 18:11:42;;;;;;;14.27;4.75;;;4.40;99.90;;;;;;10501319;28;20040;-51
2020/12/06 18:17:03;;;;;;;15.05;4.47;;;4.40;99.90;;;;;;10480649;28;20067;-51
2020/12/06 18:22:24;;;;;;;14.63;4.22;;;4.40;99.90;;;;;;10490920;28;20071;-51
2020/12/06 18:27:45;;;;;;;10.35;4.05;;;4.40;99.90;;;;;;10479265;28;20463;-51
2020/12/06 18:33:06;;;;;;;12.50;4.65;;;4.40;99.90;;;;;;10487741;28;20032;-51
2020/12/06 18:38:27;;;;;;;14.75;5.80;;;4.40;99.90;;;;;;10501148;28;20039;-51
2020/12/06 18:43:49;;;;;;;16.30;5.57;;;4.40;99.90;;;;;;10479798;28;20040;-51
2020/12/06 18:49:10;;;;;;;6.03;3.05;;;4.50;99.90;;;;;;10483525;28;20036;-51
2020/12/06 18:54:31;;;;;;;11.27;4.65;;;4.40;99.90;;;;;;10481305;28;20688;-51
2020/12/06 18:59:52;;;;;;;12.77;5.70;;;4.40;99.90;;;;;;10479405;28;20048;-51
2020/12/06 19:05:13;;;;;;;10.02;4.53;;;4.40;99.90;;;;;;10480949;28;20415;-51
2020/12/06 19:10:34;;;;;;;14.20;5.32;;;4.40;99.90;;;;;;10495802;28;20049;-51
2020/12/06 19:15:56;;;;;;;14.45;6.13;;;4.40;99.90;;;;;;10484275;28;20068;-51
2020/12/06 19:21:17;;;;;;;16.00;6.15;;;4.40;99.90;;;;;;10482733;28;20036;-51
2020/12/06 19:26:38;;;;;;;14.57;5.18;;;4.40;99.90;;;;;;10487171;28;20151;-51
2020/12/06 19:31:59;;;;;;;12.65;5.80;;;4.40;99.90;;;;;;10491697;28;20037;-51
2020/12/06 19:37:20;;;;;;;14.23;5.53;;;4.40;99.90;;;;;;10479144;28;20036;-51
2020/12/06 19:42:41;;;;;;;9.93;5.13;;;4.40;99.90;;;;;;10496728;28;20143;-51
2020/12/06 19:48:02;;;;;;;14.95;5.93;;;4.50;99.90;;;;;;10487295;28;20071;-51
2020/12/06 19:53:23;;;;;;;16.23;4.30;;;4.40;99.90;;;;;;10489988;28;20117;-51
2020/12/06 19:58:44;;;;;;;10.43;5.53;;;4.40;99.90;;;;;;10483397;28;20105;-51
2020/12/06 20:04:05;;;;;;;11.82;4.50;;;4.40;99.90;;;;;;10483587;28;20476;-51
2020/12/06 20:09:26;;;;;;;11.70;5.10;;;4.40;99.90;;;;;;10492664;28;20532;-51
2020/12/06 20:14:49;;;;;;;8.38;4.70;;;4.40;99.90;;;;;;10477790;28;20714;-51
2020/12/06 20:20:10;;;;;;;13.40;5.60;;;4.40;99.90;;;;;;10487850;28;20056;-51
2020/12/06 20:25:31;;;;;;;22.55;6.57;;;4.40;99.90;;;;;;10487278;28;20036;-51
2020/12/06 20:30:52;;;;;;;17.52;5.78;;;4.40;99.90;;;;;;10479610;28;20036;-51
2020/12/06 20:36:13;;;;;;;23.40;6.45;;;4.40;99.90;;;;;;10469675;28;20464;-51
2020/12/06 20:41:34;;;;;;;14.48;5.57;;;4.30;99.90;;;;;;10484962;28;20063;-51
2020/12/06 20:46:56;;;;;;;12.00;5.80;;;4.40;99.90;;;;;;10490119;28;20486;-51
2020/12/06 20:52:17;;;;;;;11.82;4.88;;;4.40;99.90;;;;;;10487162;28;20392;-51
2020/12/06 20:57:39;;;;;;;13.43;5.88;;;4.40;99.90;;;;;;10487312;28;20047;-51
2020/12/06 21:02:59;;;;;;;12.75;4.95;;;4.40;99.90;;;;;;10491104;28;20040;-51
2020/12/06 21:08:20;;;;;;;15.88;5.88;;;4.40;99.90;;;;;;10488794;28;20036;-51
2020/12/06 21:13:42;;;;;;;12.02;4.90;;;4.40;99.90;;;;;;10476503;28;20098;-51
2020/12/06 21:19:03;;;;;;;17.77;4.95;;;4.40;99.90;;;;;;10467133;28;20125;-51
2020/12/06 21:24:24;;;;;;;14.18;5.45;;;4.40;99.90;;;;;;10503993;28;20051;-51
2020/12/06 21:29:45;;;;;;;18.90;5.32;;;4.40;99.90;;;;;;10495611;28;20119;-51
2020/12/06 21:35:08;;;;;;;11.50;3.85;;;4.40;99.90;;;;;;10486056;28;20506;-51
2020/12/06 21:40:29;;;;;;;15.63;5.20;;;4.40;99.90;;;;;;10488925;28;20052;-51
2020/12/06 21:45:50;;;;;;;13.23;4.28;;;4.40;99.90;;;;;;10491580;28;20131;-51
2020/12/06 21:51:11;;;;;;;14.90;5.68;;;4.40;99.90;;;;;;10487017;28;20741;-51
2020/12/06 21:56:38;;;;;;;11.52;5.25;;;4.30;99.90;;;;;;10483920;28;20414;-51
2020/12/06 22:01:59;;;;;;;11.20;4.30;;;4.30;99.90;;;;;;10489421;28;20036;-51
2020/12/06 22:07:20;;;;;;;12.43;4.00;;;4.40;99.90;;;;;;10490039;28;20476;-51
2020/12/06 22:12:45;;;;;;;8.75;4.63;;;4.30;99.90;;;;;;10493775;28;20070;-51
2020/12/06 22:18:06;;;;;;;17.10;5.25;;;4.30;99.90;;;;;;10496072;28;20071;-51
2020/12/06 22:23:27;;;;;;;11.43;4.45;;;4.40;99.90;;;;;;10473235;28;20409;-51
2020/12/06 22:28:52;;;;;;;9.55;4.07;;;4.40;99.90;;;;;;10486461;28;20690;-51
2020/12/06 22:34:13;;;;;;;14.27;5.90;;;4.30;99.90;;;;;;10482910;28;20071;-51
2020/12/06 22:39:34;;;;;;;12.55;4.25;;;4.30;99.90;;;;;;10487319;28;20057;-51
2020/12/06 22:44:55;;;;;;;13.32;4.38;;;4.20;99.90;;;;;;10479787;28;20037;-51
2020/12/06 22:50:16;;;;;;;13.27;4.13;;;4.20;99.90;;;;;;10505434;28;20036;-51
2020/12/06 22:55:37;;;;;;;9.98;4.18;;;4.10;99.90;;;;;;10503688;28;20032;-51
2020/12/06 23:00:58;;;;;;;12.48;5.45;;;4.10;99.90;;;;;;10491366;28;20085;-51
2020/12/06 23:06:23;;;;;;;10.70;4.78;;;4.00;99.90;;;;;;10482240;28;20068;-51
2020/12/06 23:11:44;;;;;;;12.73;4.72;;;4.00;99.90;;;;;;10481114;28;20037;-51
2020/12/06 23:17:05;;;;;;;16.42;4.90;;;3.90;99.90;;;;;;10487305;28;20059;-51
2020/12/06 23:22:26;;;;;;;11.38;4.80;;;4.00;99.90;;;;;;10488130;28;20044;-51
2020/12/06 23:27:47;;;;;;;12.02;6.28;;;4.00;99.90;;;;;;10481530;28;20034;-51
2020/12/06 23:33:08;;;;;;;10.13;4.30;;;4.00;99.90;;;;;;10494104;28;20718;-51
2020/12/06 23:38:29;;;;;;;9.25;3.88;;;4.10;99.90;;;;;;10488207;28;20416;-51
2020/12/06 23:43:50;;;;;;;11.20;3.33;;;4.10;99.90;;;;;;10487706;28;20043;-51
2020/12/06 23:49:12;;;;;;;11.73;4.00;;;4.10;99.90;;;;;;10473201;28;20527;-51
2020/12/06 23:54:33;;;;;;;9.85;4.15;;;4.10;99.90;;;;;;10489359;28;20047;-51
2020/12/06 23:59:54;;;;;;;7.93;4.57;;;4.10;99.90;;;;;;10485367;28;20459;-51
